This is the latest recevied weather packets stored in our database for station/object WD7CGF. If no packets are shown the sender has not sent any weather packets the latest 10 day(s).
| Time | Temp. | Humidity | Pressure | Rain* | Wind** | Luminosity | Snow |
|---|---|---|---|---|---|---|---|
| 1787733527 | 17.22° C | 76% | 1014.3 hPa | 0 mm | - | - | - |
| 1787732920 | 17.22° C | 75% | 1014.2 hPa | 0 mm | - | - | - |
| 1787732314 | 17.78° C | 74% | 1014.2 hPa | 0 mm | - | - | - |
| 1787731728 | 17.78° C | 73% | 1014.2 hPa | 0 mm | - | - | - |
| 1787731121 | 18.33° C | 71% | 1014.3 hPa | 0 mm | - | - | - |
| 1787730514 | 18.33° C | 71% | 1014.3 hPa | 0 mm | - | - | - |
| 1787729931 | 18.89° C | 68% | 1014.2 hPa | 0 mm | - | - | - |
| 1787729329 | 19.44° C | 66% | 1014.1 hPa | 0 mm | - | - | - |
| 1787728723 | 20° C | 64% | 1014.1 hPa | 0 mm | - | - | - |
| 1787728115 | 20.56° C | 62% | 1014.3 hPa | 0 mm | - | - | - |
| 1787727528 | 21.11° C | 60% | 1013.9 hPa | 0 mm | - | - | - |
| 1787726917 | 21.67° C | 59% | 1013.9 hPa | 0 mm | - | - | - |
| 1787726330 | 22.22° C | 56% | 1013.6 hPa | 0 mm | - | - | - |
| 1787725725 | 22.22° C | 56% | 1013.5 hPa | 0 mm | - | - | - |
| 1787725119 | 22.78° C | 55% | 1013.5 hPa | 0 mm | - | - | - |
| 1787724516 | 22.78° C | 54% | 1013.9 hPa | 0 mm | - | - | - |
| 1787723930 | 23.33° C | 53% | 1013.8 hPa | 0 mm | - | - | - |
| 1787723323 | 23.33° C | 53% | 1013.8 hPa | 0 mm | - | - | - |
| 1787722717 | 23.33° C | 53% | 1013.7 hPa | 0 mm | - | - | - |
| 1787722129 | 23.33° C | 53% | 1013.4 hPa | 0 mm | - | - | - |
| 1787721523 | 23.33° C | 54% | 1013.4 hPa | 0 mm | - | - | - |
| 1787720918 | 23.33° C | 54% | 1013.1 hPa | 0 mm | - | - | - |
| 1787720315 | 23.33° C | 53% | 1013 hPa | 0 mm | - | - | - |
| 1787719728 | 23.89° C | 51% | 1013 hPa | 0 mm | - | - | - |
| 1787719121 | 23.33° C | 53% | 1013.1 hPa | 0 mm | - | - | - |
* Rain latest hour (hover to see other rain measurements)
** Current wind speed in m/s (hover to see current wind gust speed)